createdAt,value
2019-04-12T00:00:49.305Z,102892.72
2019-04-12T00:03:16.864Z,102889.20
2019-04-12T00:05:44.459Z,102884.41
2019-04-12T00:08:12.008Z,102888.73
2019-04-12T00:10:41.690Z,102885.19
2019-04-12T00:13:09.283Z,102884.72
2019-04-12T00:15:36.807Z,102889.09
2019-04-12T00:18:04.481Z,102887.33
2019-04-12T00:20:32.073Z,102883.88
2019-04-12T00:22:59.624Z,102889.12
2019-04-12T00:25:27.111Z,102882.11
2019-04-12T00:27:54.628Z,102885.16
2019-04-12T00:30:22.158Z,102881.21
2019-04-12T00:32:51.701Z,102876.37
2019-04-12T00:35:21.607Z,102880.30
2019-04-12T00:37:48.642Z,102878.56
2019-04-12T00:40:16.159Z,102875.16
2019-04-12T00:42:43.747Z,102880.48
2019-04-12T00:45:11.299Z,102882.58
2019-04-12T00:47:40.238Z,102883.36
2019-04-12T00:50:11.060Z,102878.53
2019-04-12T00:52:37.622Z,102879.83
2019-04-12T00:55:05.241Z,102881.55
2019-04-12T00:57:32.729Z,102878.52
2019-04-12T01:00:00.300Z,102881.49
2019-04-12T01:02:39.406Z,102877.15
2019-04-12T01:05:16.966Z,102876.31
2019-04-12T01:07:42.211Z,102878.88
2019-04-12T01:10:09.737Z,102881.94
2019-04-12T01:12:37.235Z,102881.08
2019-04-12T01:15:04.861Z,102877.93
2019-04-12T01:17:32.497Z,102875.73
2019-04-12T01:20:02.310Z,102875.73
2019-04-12T01:22:29.723Z,102873.64
2019-04-12T01:24:57.885Z,102876.70
2019-04-12T01:27:25.562Z,102873.97
2019-04-12T01:29:53.274Z,102870.35
2019-04-12T01:32:20.897Z,102870.35
2019-04-12T01:34:48.554Z,102880.52
2019-04-12T01:37:16.159Z,102878.44
2019-04-12T01:39:43.674Z,102880.69
2019-04-12T01:42:11.265Z,102878.04
2019-04-12T01:44:38.960Z,102882.02
2019-04-12T01:47:06.476Z,102883.86
2019-04-12T01:49:34.058Z,102883.86
2019-04-12T01:52:01.536Z,102881.32
2019-04-12T01:54:29.058Z,102882.97
2019-04-12T01:56:56.541Z,102879.82
2019-04-12T01:59:24.100Z,102877.20
2019-04-12T02:01:51.626Z,102874.98
2019-04-12T02:04:19.128Z,102874.98
2019-04-12T02:06:46.627Z,102877.54
2019-04-12T02:09:14.276Z,102877.56
2019-04-12T02:11:41.780Z,102872.78
2019-04-12T02:14:09.834Z,102882.75
2019-04-12T02:16:37.485Z,102877.84
2019-04-12T02:19:05.051Z,102873.09
2019-04-12T02:21:32.536Z,102876.09
2019-04-12T02:24:00.051Z,102868.24
2019-04-12T02:26:27.524Z,102872.97
2019-04-12T02:28:55.072Z,102875.54
2019-04-12T02:31:50.681Z,102874.53
2019-04-12T02:34:18.746Z,102877.53
2019-04-12T02:36:46.249Z,102878.42
2019-04-12T02:39:13.772Z,102877.20
2019-04-12T02:41:41.235Z,102877.65
2019-04-12T02:44:08.836Z,102879.82
2019-04-12T02:46:45.850Z,102882.44
2019-04-12T02:49:17.934Z,102882.91
2019-04-12T02:51:50.494Z,102878.06
2019-04-12T02:54:26.774Z,102875.50
2019-04-12T02:57:16.573Z,102878.09
2019-04-12T02:59:44.102Z,102873.76
2019-04-12T03:02:14.891Z,102874.14
2019-04-12T03:04:42.398Z,102873.19
2019-04-12T03:07:09.870Z,102871.50
2019-04-12T03:09:37.424Z,102877.65
2019-04-12T03:12:04.894Z,102875.36
2019-04-12T03:14:33.282Z,102875.22
2019-04-12T03:17:01.119Z,102872.03
2019-04-12T03:19:28.606Z,102881.61
2019-04-12T03:21:56.114Z,102885.50
2019-04-12T03:24:24.180Z,102889.80
2019-04-12T03:26:52.107Z,102889.84
2019-04-12T03:29:19.609Z,102886.33
2019-04-12T03:31:47.177Z,102889.84
2019-04-12T03:34:14.726Z,102890.28
2019-04-12T03:36:42.200Z,102893.05
2019-04-12T03:39:09.717Z,102891.78
2019-04-12T03:41:37.246Z,102886.99
2019-04-12T03:44:04.987Z,102885.68
2019-04-12T03:46:32.504Z,102887.44
2019-04-12T03:48:59.991Z,102886.90
2019-04-12T03:51:27.548Z,102891.78
2019-04-12T03:53:55.070Z,102888.68
2019-04-12T03:56:22.685Z,102890.41
2019-04-12T03:58:52.079Z,102890.41
2019-04-12T04:01:19.914Z,102890.44
2019-04-12T04:03:47.428Z,102890.44
2019-04-12T04:06:14.906Z,102886.57
2019-04-12T04:08:42.427Z,102888.30
2019-04-12T04:11:09.892Z,102890.91
2019-04-12T04:13:37.455Z,102890.91
2019-04-12T04:16:07.300Z,102890.91
2019-04-12T04:18:34.860Z,102890.91
2019-04-12T04:21:27.551Z,102890.91
2019-04-12T04:24:04.968Z,102887.79
2019-04-12T04:26:57.795Z,102893.60
2019-04-12T04:29:43.393Z,102893.60
2019-04-12T04:32:39.285Z,102885.25
2019-04-12T04:35:06.800Z,102891.08
2019-04-12T04:37:34.950Z,102898.42
2019-04-12T04:40:02.670Z,102896.79
2019-04-12T04:42:30.277Z,102896.79
2019-04-12T04:44:57.735Z,102894.20
2019-04-12T04:47:25.256Z,102902.47
2019-04-12T04:49:55.055Z,102902.88
2019-04-12T04:52:22.747Z,102902.44
2019-04-12T04:54:50.282Z,102895.58
2019-04-12T04:57:17.865Z,102897.45
2019-04-12T04:59:45.323Z,102898.31
2019-04-12T05:02:12.896Z,102896.83
2019-04-12T05:04:40.378Z,102903.36
2019-04-12T05:07:07.889Z,102907.77
2019-04-12T05:09:35.386Z,102909.42
2019-04-12T05:12:02.990Z,102909.42
2019-04-12T05:14:30.478Z,102908.05
2019-04-12T05:16:57.993Z,102902.44
2019-04-12T05:19:25.504Z,102902.44
2019-04-12T05:21:53.123Z,102913.02
2019-04-12T05:24:20.685Z,102918.41
2019-04-12T05:26:48.162Z,102920.70
2019-04-12T05:29:15.657Z,102920.29
2019-04-12T05:31:43.422Z,102918.53
2019-04-12T05:34:10.963Z,102923.62
2019-04-12T05:36:38.542Z,102922.59
2019-04-12T05:39:06.486Z,102922.53
2019-04-12T05:41:34.091Z,102927.38
2019-04-12T05:44:09.759Z,102927.03
2019-04-12T05:46:55.985Z,102923.48
2019-04-12T05:49:33.463Z,102934.02
2019-04-12T05:52:01.243Z,102933.60
2019-04-12T05:54:29.043Z,102935.39
2019-04-12T05:56:57.507Z,102928.78
2019-04-12T05:59:37.688Z,102922.98
2019-04-12T06:02:34.128Z,102922.98
2019-04-12T06:05:02.130Z,102928.72
2019-04-12T06:07:29.951Z,102933.22
2019-04-12T06:09:58.041Z,102933.22
2019-04-12T06:12:25.865Z,102934.11
2019-04-12T06:14:53.747Z,102934.11
2019-04-12T06:17:21.462Z,102935.87
2019-04-12T06:19:49.599Z,102930.54
2019-04-12T06:22:20.600Z,102930.54
2019-04-12T06:25:02.623Z,102944.77
2019-04-12T06:27:49.768Z,102941.53
2019-04-12T06:30:35.358Z,102939.00
2019-04-12T06:33:02.879Z,102935.61
2019-04-12T06:35:30.419Z,102935.61
2019-04-12T06:37:58.080Z,102944.77
2019-04-12T06:40:25.617Z,102938.22
2019-04-12T06:42:53.099Z,102941.79
2019-04-12T06:45:20.598Z,102949.20
2019-04-12T06:47:48.207Z,102947.83
2019-04-12T06:50:27.276Z,102945.27
2019-04-12T06:52:54.775Z,102947.53
2019-04-12T06:55:23.298Z,102954.02
2019-04-12T06:57:50.790Z,102957.50
2019-04-12T07:00:38.191Z,102950.51
2019-04-12T07:03:55.987Z,102948.70
2019-04-12T07:06:13.614Z,102955.36
2019-04-12T07:08:41.447Z,102958.42
2019-04-12T07:11:09.129Z,102955.38
2019-04-12T07:13:36.625Z,102953.62
2019-04-12T07:16:04.094Z,102948.03
2019-04-12T07:18:31.591Z,102954.94
2019-04-12T07:20:59.318Z,102954.52
2019-04-12T07:23:26.762Z,102951.48
2019-04-12T07:25:54.193Z,102949.31
2019-04-12T07:28:21.736Z,102944.44
2019-04-12T07:30:56.572Z,102927.75
2019-04-12T07:33:19.028Z,102943.66
2019-04-12T07:35:46.971Z,102942.80
2019-04-12T07:38:14.460Z,102954.57
2019-04-12T07:40:42.200Z,102946.78
2019-04-12T07:43:10.054Z,102943.83
2019-04-12T07:45:37.820Z,102946.92
2019-04-12T07:48:05.562Z,102949.56
2019-04-12T07:50:59.317Z,102954.39
2019-04-12T07:53:33.527Z,102957.88
2019-04-12T07:56:06.369Z,102948.73
2019-04-12T07:58:48.786Z,102957.08
2019-04-12T08:01:30.107Z,102949.23
2019-04-12T08:04:19.693Z,102951.44
2019-04-12T08:06:52.173Z,102954.49
2019-04-12T08:09:19.765Z,102949.33
2019-04-12T08:11:47.280Z,102952.42
2019-04-12T08:14:14.805Z,102950.66
2019-04-12T08:16:42.299Z,102951.98
2019-04-12T08:19:10.446Z,102948.50
2019-04-12T08:21:37.947Z,102948.50
2019-04-12T08:24:05.667Z,102955.05
2019-04-12T08:26:33.174Z,102952.79
2019-04-12T08:29:00.770Z,102953.73
2019-04-12T08:31:28.357Z,102953.34
2019-04-12T08:33:55.907Z,102947.71
2019-04-12T08:36:23.405Z,102949.02
2019-04-12T08:38:51.052Z,102956.02
2019-04-12T08:41:18.631Z,102948.63
2019-04-12T08:43:46.099Z,102949.96
2019-04-12T08:46:13.713Z,102938.17
2019-04-12T08:48:41.249Z,102943.91
2019-04-12T08:51:08.721Z,102936.39
2019-04-12T08:53:36.258Z,102943.41
2019-04-12T08:56:03.919Z,102944.33
2019-04-12T08:58:31.621Z,102930.88
2019-04-12T09:00:59.375Z,102933.55
2019-04-12T09:03:26.947Z,102934.48
2019-04-12T09:05:54.508Z,102931.02
2019-04-12T09:08:22.051Z,102934.11
2019-04-12T09:10:49.547Z,102932.33
2019-04-12T09:13:17.217Z,102932.35
2019-04-12T09:15:45.005Z,102945.47
2019-04-12T09:18:12.745Z,102950.72
2019-04-12T09:21:06.067Z,102945.08
2019-04-12T09:23:43.958Z,102942.52
2019-04-12T09:26:12.032Z,102949.92
2019-04-12T09:28:39.620Z,102943.82
2019-04-12T09:31:07.967Z,102947.74
2019-04-12T09:33:35.907Z,102950.86
2019-04-12T09:36:03.871Z,102953.52
2019-04-12T09:38:31.704Z,102946.58
2019-04-12T09:41:00.861Z,102946.16
2019-04-12T09:43:28.770Z,102949.22
2019-04-12T09:45:56.640Z,102949.23
2019-04-12T09:48:24.649Z,102954.06
2019-04-12T09:50:52.312Z,102947.51
2019-04-12T09:53:20.270Z,102947.97
2019-04-12T09:55:48.269Z,102927.27
2019-04-12T09:58:16.172Z,102950.57
2019-04-12T10:00:43.871Z,102956.70
2019-04-12T10:03:11.903Z,102950.16
2019-04-12T10:05:39.890Z,102951.47
2019-04-12T10:08:07.844Z,102958.01
2019-04-12T10:10:35.421Z,102956.72
2019-04-12T10:13:02.920Z,102956.33
2019-04-12T10:15:30.529Z,102948.03
2019-04-12T10:18:01.403Z,102943.22
2019-04-12T10:20:29.433Z,102941.03
2019-04-12T10:22:57.218Z,102945.98
2019-04-12T10:25:24.954Z,102940.70
2019-04-12T10:27:53.208Z,102934.62
2019-04-12T10:30:21.061Z,102933.75
2019-04-12T10:32:48.552Z,102939.44
2019-04-12T10:35:16.204Z,102939.42
2019-04-12T10:37:43.771Z,102930.29
2019-04-12T10:40:11.532Z,102925.05
2019-04-12T10:42:39.831Z,102924.66
2019-04-12T10:45:27.032Z,102924.20
2019-04-12T10:47:58.790Z,102926.45
2019-04-12T10:50:55.329Z,102930.38
2019-04-12T10:53:51.603Z,102926.89
2019-04-12T10:56:19.365Z,102916.35
2019-04-12T10:58:47.962Z,102912.88
2019-04-12T11:01:15.838Z,102912.00
2019-04-12T11:03:43.314Z,102908.46
2019-04-12T11:06:10.852Z,102909.30
2019-04-12T11:08:38.296Z,102905.36
2019-04-12T11:11:07.567Z,102904.94
2019-04-12T11:13:35.609Z,102900.58
2019-04-12T11:16:03.474Z,102893.64
2019-04-12T11:18:31.342Z,102893.67
2019-04-12T11:20:59.348Z,102896.77
2019-04-12T11:23:27.075Z,102892.83
2019-04-12T11:25:54.939Z,102891.05
2019-04-12T11:28:22.807Z,102891.52
2019-04-12T11:30:50.570Z,102884.57
2019-04-12T11:33:18.334Z,102887.67
2019-04-12T11:35:46.095Z,102890.25
2019-04-12T11:38:13.759Z,102891.55
2019-04-12T11:40:41.380Z,102882.80
2019-04-12T11:43:09.155Z,102888.98
2019-04-12T11:45:37.149Z,102886.83
2019-04-12T11:48:05.194Z,102876.36
2019-04-12T11:50:33.584Z,102882.50
2019-04-12T11:53:01.363Z,102880.81
2019-04-12T11:55:28.858Z,102884.30
2019-04-12T11:57:56.495Z,102882.55
2019-04-12T12:00:36.207Z,102873.80
2019-04-12T12:03:11.732Z,102873.80
2019-04-12T12:05:56.701Z,102871.25
2019-04-12T12:08:42.276Z,102872.66
2019-04-12T12:11:32.077Z,102879.75
2019-04-12T12:14:28.453Z,102873.19
2019-04-12T12:17:15.465Z,102876.27
2019-04-12T12:19:42.943Z,102878.84
2019-04-12T12:22:10.455Z,102878.80
2019-04-12T12:24:37.976Z,102876.53
2019-04-12T12:27:05.442Z,102869.94
2019-04-12T12:29:42.310Z,102879.14
2019-04-12T12:32:02.292Z,102873.47
2019-04-12T12:34:29.731Z,102874.37
2019-04-12T12:36:57.205Z,102875.25
2019-04-12T12:39:24.685Z,102878.30
2019-04-12T12:41:52.178Z,102872.17
2019-04-12T12:44:19.664Z,102866.02
2019-04-12T12:46:47.172Z,102871.73
2019-04-12T12:49:14.671Z,102869.55
2019-04-12T12:51:42.138Z,102873.11
2019-04-12T12:54:10.561Z,102878.88
2019-04-12T12:56:38.030Z,102874.98
2019-04-12T12:59:05.558Z,102873.28
2019-04-12T13:01:33.046Z,102871.53
2019-04-12T13:04:00.536Z,102873.31
2019-04-12T13:06:28.029Z,102868.95
2019-04-12T13:08:55.523Z,102864.12
2019-04-12T13:11:23.044Z,102863.70
2019-04-12T13:13:50.500Z,102869.80
2019-04-12T13:16:18.013Z,102866.34
2019-04-12T13:18:45.478Z,102866.36
2019-04-12T13:21:13.034Z,102867.66
2019-04-12T13:23:40.498Z,102862.00
2019-04-12T13:26:07.989Z,102858.53
2019-04-12T13:28:37.057Z,102855.92
2019-04-12T13:31:23.091Z,102849.84
2019-04-12T13:34:10.165Z,102848.98
2019-04-12T13:37:00.414Z,102845.91
2019-04-12T13:39:46.038Z,102844.64
2019-04-12T13:42:33.061Z,102846.40
2019-04-12T13:45:00.613Z,102838.97
2019-04-12T13:47:28.120Z,102837.23
2019-04-12T13:49:55.593Z,102835.52
2019-04-12T13:52:23.153Z,102829.83
2019-04-12T13:54:50.625Z,102825.91
2019-04-12T13:57:18.129Z,102832.48
2019-04-12T13:59:45.642Z,102827.69
2019-04-12T14:02:13.235Z,102828.56
2019-04-12T14:04:40.771Z,102829.44
